上海/浦東 の空港の天気 - METARとTAF

上海浦東国際空港 ( ZSPD / PVG ) - 中国 上海市
飛行場実況気象(Metar)
観測時間05/17 22:30 CST (05/17 14:30 UTC)
風向・風速東 2m/s
視程10km以上
天気現象
なし
気温19℃
湿度68%
気圧1013hPa
METARZSPD 171430Z 08002MPS 030V130 CAVOK 19/13 Q1013 NOSIG
過去の天気等 Google飛行場航空写真 Wunderground天気予報

過去48時間のMETAR

飛行場予報(TAF)
発表時間: 5/17 17:06 CST (5/17 09:06 UTC)
予報対象時間: 17日20時 CST ~ 18日20時 CST
風向・風速東北東 4m/s
視程6000m
全天の8割程度の雲 雲底高度 610m
18日12時 CST ~ 18日14時 CST に徐々に
風向・風速東南東 4m/s
TAF ZSPD 170906Z 1712/1812 06004MPS 6000 BKN020 TX24/1806Z TN17/1720Z
BECMG 1804/1806 12004MPS